x

9099004 - Point Iroquois, Mi (ptim4) Weather Station

7:30pm - Thu 20th Nov 2014 All times are CST. -6 hours from GMT.

  • Wind
    28mph, 33mph gusts
  • Air Temp 22°f
  • Sea Pressure 1014.8mb
  • 9099004 - Point Iroquois, Mi
  • 9099004 - Point Iroquois, Mi

More Historic Weather Station data

Upgrade to MSW Pro to gain access to the past 30 days of data for over 8000 Wavebouys and Weather Stations around the globe.

Join Pro

Comparision Forecast

View Surf forecast
   
Thu 11/20 7:30pm 28 33 mph 1014.8mb 22f
7:24pm 31 37 mph 1014.8mb 22f
7:18pm 25 32 mph 1014.7mb 22f
7:12pm 28 34 mph 1014.6mb 22f
7:06pm 26 36 mph 1014.5mb 22f
7:00pm 24 32 mph 1014.3mb 23f
6:54pm 24 31 mph 1014.1mb 23f
6:48pm 24 33 mph 1014mb 23f
6:42pm 24 31 mph 1013.9mb 23f
6:36pm 26 36 mph 1013.8mb 23f
6:30pm 24 34 mph 1013.6mb 23f
6:24pm 22 25 mph 1013.6mb 23f
6:18pm 23 33 mph 1013.6mb 22f
6:12pm 31 36 mph 1013.5mb 23f
6:06pm 29 36 mph 1013.4mb 23f
6:00pm 30 38 mph 1013.3mb 22f
5:48pm 26 37 mph 1013.1mb 23f
5:42pm 26 34 mph 1012.9mb 23f
5:36pm 30 37 mph 1012.8mb 23f
5:30pm 24 30 mph 1012.7mb 23f
5:24pm 23 34 mph 1012.5mb 23f
5:18pm 29 36 mph 1012.4mb 23f
5:12pm 24 37 mph 1012.3mb 24f
5:06pm 29 34 mph 1012.2mb 23f
5:00pm 26 37 mph 1012mb 24f
4:54pm 29 36 mph 1011.9mb 24f
4:48pm 29 34 mph 1011.7mb 24f
4:42pm 29 33 mph 1011.7mb 24f
4:36pm 29 33 mph 1011.5mb 23f
4:30pm 31 40 mph 1011.4mb 23f
4:24pm 32 36 mph 1011.3mb 22f
4:18pm 26 32 mph 1011.1mb 23f
4:12pm 25 31 mph 1010.9mb 22f
4:06pm 25 31 mph 1010.7mb 22f
4:00pm 29 33 mph 1010.5mb 21f
3:54pm 33 39 mph 1010.4mb 22f
3:48pm 29 36 mph 1010.2mb 22f
3:42pm 26 34 mph 1010.1mb 22f
3:36pm 25 36 mph 1010mb 22f
3:30pm 31 36 mph 1009.8mb 22f
3:24pm 26 41 mph 1009.6mb 22f
3:18pm 25 33 mph 1009.4mb 22f
3:12pm 28 40 mph 1009.3mb 22f
3:06pm 29 33 mph 1009.1mb 23f
3:00pm 28 34 mph 1009mb 23f
2:54pm 17 20 mph 1008.8mb 24f
2:48pm 17 30 mph 1008.8mb 22f
2:42pm 23 29 mph 1008.6mb 23f
2:36pm 22 31 mph 1008.5mb 23f
2:30pm 26 31 mph 1008.2mb 23f
2:24pm 17 24 mph 1008.1mb 24f
2:18pm 16 20 mph 1008mb 24f
2:12pm 14 21 mph 1007.8mb 23f
2:06pm 10 14 mph 1007.7mb 23f
2:00pm 7 14 mph 1007.6mb 22f
1:54pm 11 18 mph 1007.5mb 22f
1:48pm 8 13 mph 1007.4mb 22f
1:42pm 11 16 mph 1007.2mb 22f
1:36pm 8 10 mph 1007mb 22f
1:30pm 9 14 mph 1007mb 22f
1:24pm 11 16 mph 1007mb 22f
1:18pm 15 21 mph 1006.8mb 23f
1:12pm 13 18 mph 1006.7mb 22f
1:06pm 9 14 mph 1006.6mb 22f
1:00pm 8 14 mph 1006.5mb 23f
12:54pm 10 14 mph 1006.4mb 22f
12:48pm 8 11 mph 1006.3mb 23f
12:42pm 8 13 mph 1006.2mb 23f
12:36pm 8 11 mph 1006.1mb 23f
12:30pm 7 13 mph 1006mb 22f
12:24pm 2 5 mph 1005.9mb 22f
12:18pm 3 5 mph 1005.8mb 22f
12:12pm  -  5 mph 1005.8mb 22f
12:06pm 5 6 mph 1005.7mb 21f
12:00pm 3 5 mph 1005.6mb 22f
11:54am 2 5 mph 1005.5mb 22f
11:48am 2 5 mph 1005.4mb 22f
11:42am 2 3 mph 1005.3mb 22f
11:36am 2 6 mph 1005.3mb 22f
11:30am 3 8 mph 1005.2mb 21f
11:24am 8 14 mph 1005.2mb 21f
11:18am 3 9 mph 1005.2mb 21f
11:12am 5 9 mph 1005.1mb 22f
11:06am 5 8 mph 1005mb 21f
11:00am 2 10 mph 1005mb 20f
10:54am 7 11 mph 1005mb 22f
10:48am 9 17 mph 1004.7mb 22f
10:42am 14 18 mph 1004.4mb 23f
10:36am 13 21 mph 1004.2mb 22f
10:30am 13 22 mph 1003.8mb 19f
10:24am 11 24 mph 1004mb 19f
10:18am 15 24 mph 1004.1mb 19f
10:12am 14 24 mph 1004.1mb 19f
10:06am 15 24 mph 1003.9mb 18f
10:00am 13 23 mph 1004mb 18f
9:54am 15 26 mph 1004.1mb 18f
9:48am 15 23 mph 1004mb 18f
9:42am 15 22 mph 1003.9mb 18f
9:36am 16 28 mph 1003.8mb 18f
9:30am 15 26 mph 1003.6mb 18f
9:24am 16 24 mph 1003.4mb 18f
9:18am 14 25 mph 1003.3mb 18f
9:12am 16 22 mph 1003.4mb 18f
9:06am 16 23 mph 1003.4mb 18f
9:00am 14 24 mph 1003.4mb 18f
8:54am 16 26 mph 1003.4mb 18f
8:48am 16 25 mph 1003.4mb 18f
8:42am 16 28 mph 1003.3mb 19f
8:36am 14 25 mph 1003.3mb 19f
8:30am 18 29 mph 1003.2mb 19f
8:24am 16 25 mph 1003.2mb 19f
8:18am 17 31 mph 1003.2mb 19f
8:12am 17 32 mph 1003.2mb 19f
8:06am 15 24 mph 1003mb 18f
8:00am 11 24 mph 1003mb 19f
7:54am 14 28 mph 1003mb 18f
7:48am 14 30 mph 1003mb 19f
7:42am 17 31 mph 1002.9mb 19f
7:36am 16 26 mph 1002.9mb 19f
7:30am 17 24 mph 1002.7mb 19f
7:24am 14 28 mph 1002.7mb 19f
7:18am 16 30 mph 1002.7mb 19f
7:12am 14 29 mph 1002.6mb 20f
7:06am 16 29 mph 1002.6mb 20f
7:00am 17 31 mph 1002.5mb 20f
6:54am 16 30 mph 1002.4mb 19f
6:48am 17 28 mph 1002.4mb 20f
6:42am 15 29 mph 1002.2mb 20f
6:36am 15 25 mph 1002.2mb 19f
6:30am 15 23 mph 1002.2mb 19f
6:24am 15 25 mph 1002.1mb 19f
6:18am 17 29 mph 1002.1mb 19f
6:12am 11 22 mph 1002mb 19f
6:06am 13 22 mph 1001.9mb 19f
5:54am 14 22 mph 1001.9mb 19f
5:48am 14 23 mph 1001.8mb 19f
5:42am 14 28 mph 1001.8mb 19f
5:36am 16 26 mph 1001.8mb 19f
5:30am 17 26 mph 1001.7mb 19f
5:24am 17 28 mph 1001.7mb 19f
5:18am 13 23 mph 1001.7mb 19f
5:12am 16 25 mph 1001.7mb 19f
5:06am 11 31 mph 1001.7mb 19f
5:00am 15 24 mph 1001.7mb 19f
4:54am 16 24 mph 1001.6mb 20f
4:48am 15 24 mph 1001.5mb 20f
4:42am 14 24 mph 1001.4mb 20f
4:36am 10 24 mph 1001.4mb 19f
4:30am 15 25 mph 1001.5mb 19f
4:24am 14 23 mph 1001.5mb 19f
4:18am 9 21 mph 1001.4mb 19f
4:12am 14 23 mph 1001.4mb 19f
4:06am 11 23 mph 1001.3mb 19f
4:00am 13 18 mph 1001.3mb 19f
3:54am 10 18 mph 1001.2mb 19f
3:48am 10 23 mph 1001.2mb 20f
3:42am 11 22 mph 1001.2mb 20f
3:36am 13 21 mph 1001.2mb 20f
3:30am 10 20 mph 1001.1mb 20f
3:24am 13 24 mph 1001.1mb 20f
3:18am 9 22 mph 1000.9mb 21f
3:12am 14 22 mph 1000.8mb 22f
3:06am 11 22 mph 1000.7mb 22f
3:00am 14 30 mph 1000.6mb 23f
2:54am 16 24 mph 1000.5mb 24f
2:48am 21 36 mph 1000.4mb 24f
2:42am 29 39 mph 1000.3mb 26f
2:36am 17 30 mph 1000.3mb 24f
2:30am 21 29 mph 1000.3mb 24f
2:24am 21 32 mph 1000.2mb 24f
2:18am 23 36 mph 1000.2mb 25f
2:12am 22 34 mph 1000.3mb 24f
2:06am 18 33 mph 1000.3mb 24f
2:00am 31 44 mph 1000.1mb 26f
1:54am 26 44 mph 1000.2mb 25f
1:48am 22 47 mph 1000.1mb 24f
1:42am 29 49 mph 999.9mb 24f
1:36am 22 49 mph 999.6mb 23f
1:30am 26 54 mph 999.6mb 23f
1:24am 23 40 mph 999.5mb 23f
1:18am 24 33 mph 999.5mb 24f
1:12am 14 28 mph 999.6mb 22f
1:06am 15 20 mph 999.7mb 22f
1:00am 11 20 mph 999.7mb 22f
12:54am 15 23 mph 999.7mb 22f
12:48am 15 25 mph 999.6mb 22f
12:42am 14 23 mph 999.6mb 21f
12:36am 14 20 mph 999.5mb 22f
12:30am 13 23 mph 999.3mb 21f
12:24am 10 22 mph 999.4mb 21f
12:18am 11 18 mph 999.4mb 20f
12:12am 13 20 mph 999.4mb 20f
12:06am 8 14 mph 999.4mb 20f
12:00am 8 15 mph 999.4mb 20f
Wed 11/19 11:54pm 10 15 mph 999.6mb 20f
11:48pm 7 14 mph 999.7mb 20f
11:42pm 9 15 mph 999.7mb 20f
11:36pm 8 16 mph 999.8mb 20f
11:30pm 11 17 mph 999.8mb 20f
11:24pm 13 21 mph 999.8mb 20f
11:18pm 9 15 mph 999.7mb 20f
11:12pm 11 18 mph 999.7mb 20f
11:06pm 9 13 mph 999.6mb 20f
11:00pm 6 13 mph 999.6mb 19f
10:54pm 9 16 mph 999.7mb 19f
10:48pm 8 13 mph 999.7mb 19f
10:42pm 9 16 mph 999.8mb 20f
10:36pm 10 18 mph 999.8mb 20f
10:30pm 11 21 mph 999.8mb 20f
10:24pm 11 20 mph 999.8mb 20f
10:18pm 11 17 mph 999.7mb 20f
10:12pm 11 18 mph 999.7mb 20f
10:06pm 11 21 mph 999.7mb 21f
10:00pm 13 21 mph 999.8mb 21f
9:54pm 13 22 mph 999.8mb 21f
9:48pm 14 18 mph 999.8mb 21f
9:42pm 11 23 mph 999.8mb 21f
9:36pm 13 20 mph 999.8mb 21f
9:30pm 10 23 mph 999.7mb 21f
9:24pm 13 21 mph 999.7mb 21f
9:18pm 13 21 mph 999.6mb 22f
9:12pm 11 21 mph 999.6mb 22f
9:06pm 17 28 mph 999.6mb 23f
9:00pm 17 25 mph 999.5mb 23f
8:54pm 16 25 mph 999.5mb 24f
8:48pm 18 26 mph 999.4mb 24f
8:42pm 22 28 mph 999.4mb 25f
8:36pm 22 33 mph 999.4mb 25f
8:30pm 24 33 mph 999.3mb 25f
8:24pm 20 31 mph 999.4mb 25f
8:12pm 22 28 mph 999.2mb 25f
8:06pm 20 25 mph 999.4mb 24f
8:00pm 18 26 mph 999.4mb 24f
7:54pm 20 25 mph 999.4mb 25f
7:48pm 18 23 mph 999.5mb 25f
7:42pm 14 21 mph 999.6mb 25f
7:36pm 7 13 mph 999.6mb 23f
7:30pm 5 8 mph 999.7mb 22f
7:24pm 6 7 mph 999.8mb 22f
7:18pm 3 6 mph 999.8mb 22f
7:12pm 3 7 mph 999.9mb 22f
7:06pm 5 8 mph 999.9mb 22f
7:00pm 5 6 mph 999.9mb 22f
6:54pm 3 5 mph 999.9mb 22f
6:48pm 2 3 mph 999.9mb 22f
6:42pm 2
mph
999.9mb 22f
6:36pm 1 2 mph 999.9mb 22f
6:30pm 1 2 mph 999.9mb 22f
6:24pm 1 2 mph 999.9mb 22f
6:18pm 1 3 mph 999.9mb 22f
6:12pm 2 5 mph 999.9mb 22f
6:06pm 2 5 mph 1000mb 22f
6:00pm 2 5 mph 1000mb 22f
5:54pm 3 6 mph 1000.1mb 22f
5:48pm 5 7 mph 1000.1mb 22f
5:42pm 5 7 mph 1000.1mb 22f
5:36pm 5 8 mph 1000.1mb 23f
5:30pm 8 14 mph 1000.1mb 23f
5:24pm 6 14 mph 1000.1mb 23f
5:18pm 11 15 mph 1000.1mb 24f
5:12pm 11 15 mph 1000.1mb 24f
5:06pm 10 14 mph 1000.3mb 24f
5:00pm 13 16 mph 1000.3mb 24f
4:54pm 13 17 mph 1000.3mb 24f
4:48pm 14 18 mph 1000.4mb 24f
4:42pm 16 18 mph 1000.4mb 24f
4:36pm 17 21 mph 1000.4mb 24f
4:30pm 16 20 mph 1000.4mb 23f
4:24pm 15 18 mph 1000.5mb 23f
4:18pm 15 20 mph 1000.6mb 23f
4:12pm 16 18 mph 1000.6mb 23f
4:06pm 16 20 mph 1000.7mb 23f
4:00pm 15 17 mph 1000.7mb 23f
3:54pm 14 17 mph 1000.8mb 23f
3:48pm 13 16 mph 1000.9mb 23f
3:42pm 14 17 mph 1001mb 23f
3:36pm 13 15 mph 1001mb 22f
3:30pm 14 16 mph 1001.1mb 22f
3:24pm 13 16 mph 1001.1mb 22f
3:18pm 13 15 mph 1001.2mb 22f
3:12pm 13 16 mph 1001.3mb 22f
3:06pm 13 17 mph 1001.4mb 22f
2:54pm 15 20 mph 1001.4mb 22f
2:48pm 15 17 mph 1001.5mb 22f
2:42pm 15 18 mph 1001.5mb 22f
2:36pm 15 18 mph 1001.5mb 22f
2:30pm 15 18 mph 1001.6mb 22f
2:24pm 15 18 mph 1001.7mb 21f
2:18pm 14 18 mph 1001.8mb 21f
2:12pm 14 17 mph 1001.8mb 21f
2:06pm 14 16 mph 1002mb 20f
2:00pm 14 17 mph 1002.1mb 21f
1:54pm 14 17 mph 1002.3mb 20f
1:48pm 11 17 mph 1002.4mb 20f
1:42pm 13 18 mph 1002.6mb 20f
1:36pm 10 16 mph 1002.7mb 20f
1:30pm 13 17 mph 1002.8mb 20f
1:24pm 10 16 mph 1003mb 19f
1:18pm 10 17 mph 1003.1mb 19f
1:12pm 13 18 mph 1003.2mb 19f
1:06pm 11 15 mph 1003.3mb 19f
1:00pm 14 18 mph 1003.5mb 19f
12:54pm 13 16 mph 1003.7mb 19f
12:48pm 13 16 mph 1003.7mb 19f
12:42pm 14 17 mph 1003.8mb 19f
12:36pm 11 15 mph 1003.9mb 18f
12:30pm 9 15 mph 1004.1mb 18f
12:24pm 10 16 mph 1004.3mb 18f
12:18pm 10 16 mph 1004.4mb 18f
12:12pm 10 15 mph 1004.5mb 17f
12:06pm 11 16 mph 1004.6mb 17f
12:00pm 14 16 mph 1004.8mb 17f
11:54am 11 16 mph 1004.9mb 17f
11:48am 11 17 mph 1005mb 17f
11:42am 13 16 mph 1005.1mb 17f
11:36am 11 15 mph 1005.3mb 16f
11:30am 13 16 mph 1005.4mb 16f
11:24am 10 15 mph 1005.6mb 16f
11:18am 11 15 mph 1005.8mb 16f
11:12am 10 14 mph 1006mb 16f
11:06am 9 11 mph 1006.1mb 16f
11:00am 7 10 mph 1006.2mb 15f
10:54am 7 9 mph 1006.4mb 15f
10:48am 6 9 mph 1006.6mb 15f
10:42am 5 7 mph 1006.8mb 14f
10:36am 5 7 mph 1006.9mb 14f
10:30am 2 7 mph 1007.2mb 14f
10:24am 5 8 mph 1007.4mb 13f
10:18am 3 6 mph 1007.5mb 13f
10:06am 6 8 mph 1007.7mb 13f
10:00am 5 8 mph 1007.8mb 12f
9:54am 6 7 mph 1007.8mb 12f
9:48am 5 7 mph 1007.9mb 12f
9:42am 6 7 mph 1007.9mb 11f
9:36am 5 8 mph 1007.9mb 11f
9:24am 5 7 mph 1008.1mb 11f
9:18am 5 9 mph 1008.1mb 11f
9:12am 6 9 mph 1008.3mb 10f
9:06am 6 10 mph 1008.2mb 10f
9:00am 7 11 mph 1008.3mb 9f
8:54am 7 11 mph 1008.5mb 9f
8:48am 6 8 mph 1008.5mb 8f
8:42am 6 9 mph 1008.6mb 8f
8:36am 5 7 mph 1008.6mb 8f
8:30am 5 8 mph 1008.7mb 8f
8:24am 6 8 mph 1008.6mb 7f
8:18am 3 8 mph 1008.5mb 7f
8:12am 5 11 mph 1008.6mb 7f
8:06am 6 8 mph 1008.7mb 6f
8:00am 6 8 mph 1008.7mb 6f
7:54am 5 8 mph 1008.7mb 6f
7:48am 5 6 mph 1008.7mb 6f
7:42am 5 8 mph 1008.7mb 6f
7:36am 5 6 mph 1008.9mb 6f
7:30am 3 6 mph 1008.8mb 6f
7:24am 3 11 mph 1008.7mb 6f
7:18am 5 7 mph 1008.7mb 6f
7:12am 5 8 mph 1008.7mb 6f
7:06am 6 9 mph 1008.7mb 6f
7:00am 5 8 mph 1008.8mb 7f
6:54am 5 8 mph 1008.8mb 7f
6:48am 5 6 mph 1008.8mb 7f
6:42am 3 5 mph 1008.8mb 7f
6:36am 2 5 mph 1008.9mb 8f
6:30am 3 5 mph 1008.9mb 8f
6:24am 2 5 mph 1009mb 9f
6:18am 3 5 mph 1009mb 9f
6:12am 3 7 mph 1009mb 10f
6:06am 2 6 mph 1008.9mb 10f
6:00am 5 8 mph 1008.9mb 11f
5:54am 5 8 mph 1008.9mb 11f
5:48am 3 8 mph 1008.9mb 11f
5:42am 7 10 mph 1008.9mb 11f
5:36am 7 14 mph 1008.9mb 11f
5:30am 6 10 mph 1008.9mb 11f
5:24am 5 10 mph 1009mb 11f
5:18am 7 14 mph 1009mb 11f
5:12am 8 14 mph 1009mb 12f
5:06am 8 11 mph 1009mb 12f
5:00am 6 11 mph 1009mb 12f
4:54am 7 15 mph 1009mb 12f
4:48am 10 15 mph 1009mb 12f
4:42am 9 17 mph 1009mb 12f
4:36am 11 16 mph 1009.1mb 12f
4:30am 9 14 mph 1009.1mb 12f
4:24am 10 17 mph 1009.3mb 12f
4:18am 9 13 mph 1009.3mb 12f
4:12am 9 17 mph 1009.3mb 12f
4:06am 11 15 mph 1009.4mb 12f
4:00am 9 16 mph 1009.5mb 12f
3:54am 9 14 mph 1009.6mb 12f
3:48am 10 20 mph 1009.7mb 12f
3:42am 8 15 mph 1009.7mb 12f
3:36am 13 21 mph 1009.7mb 12f
3:30am 9 17 mph 1009.6mb 12f
3:24am 10 21 mph 1009.7mb 12f
3:18am 10 18 mph 1009.6mb 12f
3:12am 8 13 mph 1009.6mb 12f
3:06am 8 14 mph 1009.7mb 12f
3:00am 7 13 mph 1009.8mb 12f
2:54am 8 15 mph 1009.8mb 12f
2:48am 8 14 mph 1009.7mb 12f
2:42am 7 16 mph 1009.7mb 12f
2:36am 8 17 mph 1009.8mb 12f
2:30am 9 17 mph 1009.7mb 12f
2:24am 8 16 mph 1009.8mb 12f
2:18am 9 18 mph 1009.9mb 12f
2:12am 10 17 mph 1009.9mb 12f
2:06am 9 20 mph 1009.9mb 12f
2:00am 9 17 mph 1009.9mb 12f
1:54am 10 20 mph 1010mb 11f
1:48am 10 16 mph 1010mb 11f
1:42am 9 20 mph 1009.9mb 11f
1:36am 8 17 mph 1009.9mb 11f
1:30am 8 18 mph 1010mb 11f
1:24am 9 16 mph 1010mb 11f
1:18am 7 16 mph 1010mb 11f
1:12am 8 14 mph 1010mb 11f
1:06am 8 20 mph 1009.9mb 11f
1:00am 11 16 mph 1010mb 11f
12:54am 10 20 mph 1010mb 11f
12:48am 8 13 mph 1010mb 11f
12:42am 7 13 mph 1010mb 11f
12:36am 9 17 mph 1010.1mb 11f
12:30am 7 15 mph 1010mb 11f
12:24am 9 17 mph 1010mb 11f
12:18am 8 16 mph 1010mb 11f
12:12am 9 16 mph 1010mb 11f
12:06am 10 16 mph 1010.1mb 11f
12:00am 9 15 mph 1010mb 11f
Tue 11/18 11:54pm 9 20 mph 1010.1mb 11f
11:48pm 8 16 mph 1010.1mb 11f
11:42pm 8 18 mph 1010.1mb 12f
11:36pm 9 14 mph 1010.1mb 12f
11:30pm 9 18 mph 1010.1mb 12f
11:24pm 8 17 mph 1010mb 12f
11:18pm 8 15 mph 1010mb 12f
11:12pm 9 15 mph 1010mb 12f
11:06pm 9 16 mph 1010mb 12f
11:00pm 9 15 mph 1010mb 12f
10:54pm 14 21 mph 1010mb 12f
10:48pm 11 18 mph 1009.9mb 13f
10:42pm 11 18 mph 1010mb 13f
10:36pm 11 20 mph 1010mb 13f
10:30pm 11 18 mph 1010mb 13f
10:24pm 14 23 mph 1010mb 13f
10:18pm 11 18 mph 1010mb 13f
10:12pm 11 22 mph 1010mb 13f
10:06pm 10 18 mph 1010mb 13f
10:00pm 13 20 mph 1010mb 13f
9:54pm 10 20 mph 1009.9mb 13f
9:48pm 11 20 mph 1009.8mb 14f
9:42pm 11 24 mph 1009.8mb 14f
9:36pm 11 21 mph 1009.8mb 14f
9:30pm 13 17 mph 1009.8mb 14f
9:24pm 10 18 mph 1009.7mb 14f
9:18pm 9 17 mph 1009.6mb 14f
9:12pm 11 24 mph 1009.7mb 15f
9:06pm 11 21 mph 1009.7mb 15f
9:00pm 15 25 mph 1009.7mb 15f
8:54pm 14 21 mph 1009.7mb 15f
8:48pm 13 20 mph 1009.7mb 15f
8:42pm 13 25 mph 1009.8mb 15f
8:36pm 13 21 mph 1009.7mb 15f
8:30pm 13 26 mph 1009.6mb 15f
8:24pm 13 20 mph 1009.6mb 15f
8:18pm 11 17 mph 1009.6mb 15f
8:12pm 10 20 mph 1009.5mb 16f
8:06pm 11 22 mph 1009.5mb 16f
8:00pm 10 17 mph 1009.5mb 16f
7:54pm 10 16 mph 1009.3mb 16f
7:48pm 11 21 mph 1009.2mb 17f
7:42pm 11 21 mph 1009.3mb 17f
7:36pm 11 18 mph 1009.2mb 17f
7:30pm 13 18 mph 1009.1mb 17f
7:24pm 13 18 mph 1009.1mb 17f
7:18pm 14 21 mph 1009mb 17f
7:12pm 15 21 mph 1009.1mb 18f
7:06pm 13 24 mph 1009.1mb 18f
7:00pm 14 22 mph 1009.1mb 18f
6:54pm 13 18 mph 1009.1mb 18f
6:48pm 14 23 mph 1009.1mb 18f
6:42pm 13 21 mph 1008.9mb 18f
6:36pm 13 21 mph 1008.9mb 18f
6:30pm 11 21 mph 1008.8mb 18f
6:24pm 10 20 mph 1008.8mb 19f
6:18pm 11 20 mph 1008.9mb 19f
6:12pm 10 20 mph 1008.8mb 19f
6:06pm 11 20 mph 1008.6mb 19f
6:00pm 11 18 mph 1008.6mb 19f
5:54pm 11 18 mph 1008.5mb 19f
5:48pm 9 21 mph 1008.4mb 20f
5:42pm 20 28 mph 1008.3mb 22f
5:36pm 17 29 mph 1008.4mb 21f
5:30pm 17 30 mph 1008.1mb 23f
5:24pm 21 30 mph 1008.1mb 23f
5:18pm 22 29 mph 1008.1mb 22f
5:12pm 21 31 mph 1008mb 23f
5:06pm 17 29 mph 1007.9mb 23f
4:54pm 14 22 mph 1007.7mb 22f
4:48pm 11 24 mph 1007.6mb 21f
4:42pm 23 32 mph 1007.5mb 24f
4:36pm 26 36 mph 1007.4mb 24f
4:30pm 26 37 mph 1007.2mb 25f
4:24pm 23 31 mph 1007.1mb 25f
4:18pm 25 38 mph 1006.9mb 25f
4:12pm 26 34 mph 1006.8mb 25f
4:06pm 24 34 mph 1006.7mb 26f
4:00pm 25 30 mph 1006.5mb 25f
3:54pm 29 36 mph 1006.6mb 24f
3:48pm 29 36 mph 1006.4mb 25f
3:42pm 26 34 mph 1006.3mb 25f
3:36pm 29 37 mph 1006.3mb 25f
3:30pm 30 37 mph 1006.2mb 25f
3:24pm 28 38 mph 1006.1mb 24f
3:18pm 28 37 mph 1005.8mb 26f
3:12pm 23 37 mph 1005.7mb 26f
3:06pm 28 36 mph 1005.6mb 26f
3:00pm 24 34 mph 1005.5mb 26f
2:54pm 26 37 mph 1005.3mb 26f
2:48pm 29 34 mph 1005.3mb 26f
2:42pm 26 33 mph 1005.2mb 25f
2:36pm 24 34 mph 1005.2mb 25f
2:30pm 32 37 mph 1005mb 24f
2:24pm 26 34 mph 1005mb 24f
2:18pm 25 32 mph 1004.9mb 24f
2:12pm 26 33 mph 1004.7mb 24f
2:06pm 25 36 mph 1004.5mb 24f
2:00pm 30 36 mph 1004.3mb 25f
1:54pm 28 33 mph 1004.1mb 26f
1:48pm 29 36 mph 1004.1mb 25f
1:42pm 29 38 mph 1003.9mb 25f
1:36pm 24 37 mph 1003.9mb 25f
1:30pm 25 43 mph 1003.9mb 24f
1:24pm 31 40 mph 1003.7mb 25f
1:18pm 31 39 mph 1003.5mb 26f
1:12pm 34 39 mph 1003.4mb 26f
1:06pm 32 39 mph 1003.4mb 26f
1:00pm 28 37 mph 1003.5mb 25f
12:54pm 32 41 mph 1003.4mb 26f
12:48pm 37 47 mph 1003.3mb 25f
12:42pm 28 41 mph 1003.2mb 25f
12:36pm 32 43 mph 1003mb 26f
12:30pm 32 44 mph 1003mb 26f
12:24pm 31 38 mph 1002.8mb 26f
12:18pm 31 38 mph 1002.7mb 26f
12:12pm 32 41 mph 1002.7mb 26f
12:06pm 33 40 mph 1002.7mb 25f
12:00pm 28 39 mph 1002.6mb 26f
11:54am 29 39 mph 1002.5mb 26f
11:48am 33 39 mph 1002.5mb 25f
11:42am 34 43 mph 1002.4mb 25f
11:36am 33 40 mph 1002.4mb 25f
11:30am 32 38 mph 1002.3mb 25f
11:24am 33 38 mph 1002.2mb 25f
11:18am 33 39 mph 1002.2mb 25f
11:12am 33 38 mph 1002.1mb 25f
11:06am 33 39 mph 1002.1mb 25f
11:00am 31 39 mph 1002mb 25f
10:54am 32 39 mph 1001.9mb 25f
10:48am 32 37 mph 1001.8mb 25f
10:42am 36 39 mph 1001.8mb 24f
10:30am 32 38 mph 1001.7mb 25f
10:24am 31 37 mph 1001.6mb 24f
10:18am 33 39 mph 1001.6mb 24f
10:12am 32 37 mph 1001.5mb 24f
10:06am 30 37 mph 1001.4mb 24f
10:00am 30 44 mph 1001.3mb 24f
9:54am 33 41 mph 1001.2mb 24f
9:48am 30 37 mph 1001.1mb 24f
9:42am 28 34 mph 1001mb 24f
9:36am 29 34 mph 1000.9mb 24f
9:30am 26 34 mph 1000.7mb 24f
9:24am 31 38 mph 1000.6mb 24f
9:18am 30 37 mph 1000.4mb 23f
9:12am 32 45 mph 1000.3mb 23f
9:06am 31 38 mph 1000.2mb 24f
9:00am 31 37 mph 1000.1mb 24f
8:54am 33 37 mph 1000mb 23f
8:48am 26 33 mph 999.9mb 22f
8:42am 28 36 mph 999.8mb 24f
8:36am 30 41 mph 999.7mb 24f
8:30am 24 37 mph 999.5mb 23f
8:24am 31 36 mph 999.4mb 24f
8:18am 28 36 mph 999.3mb 23f
8:12am 26 37 mph 999.2mb 22f
8:06am 26 34 mph 999.1mb 23f
8:00am 29 34 mph 999mb 23f
7:54am 23 31 mph 998.9mb 24f
7:48am 29 36 mph 998.8mb 23f
7:42am 26 31 mph 998.7mb 24f
7:36am 29 32 mph 998.7mb 22f
7:30am 28 32 mph 998.5mb 23f
7:24am 24 32 mph 998.4mb 23f
7:18am 25 32 mph 998.3mb 22f
7:12am 22 38 mph 998.3mb 23f
7:06am 28 33 mph 998.2mb 22f
7:00am 24 32 mph 998.1mb 22f
6:54am 23 29 mph 997.9mb 22f
6:48am 21 28 mph 997.8mb 22f
6:42am 22 32 mph 997.7mb 23f
6:36am 22 29 mph 997.6mb 23f
6:30am 18 28 mph 997.6mb 22f
6:24am 22 28 mph 997.5mb 22f
6:18am 22 29 mph 997.5mb 23f
6:12am 23 30 mph 997.5mb 23f
6:06am 22 29 mph 997.4mb 23f
6:00am 22 30 mph 997.3mb 23f
5:54am 22 33 mph 997.2mb 23f
5:48am 25 30 mph 997.1mb 23f
5:42am 24 31 mph 997mb 23f
5:36am 29 34 mph 996.8mb 24f
5:30am 24 32 mph 996.8mb 24f
5:24am 24 33 mph 996.6mb 24f
5:18am 28 37 mph 996.6mb 23f
5:12am 29 34 mph 996.5mb 24f
5:06am 23 37 mph 996.5mb 24f
5:00am 30 38 mph 996.3mb 24f
4:54am 26 32 mph 996.4mb 24f
4:48am 30 34 mph 996.4mb 24f
4:42am 26 32 mph 996.3mb 24f
4:36am 22 31 mph 996.3mb 24f
4:30am 22 32 mph 996.2mb 24f
4:24am 24 33 mph 996.2mb 24f
4:18am 22 26 mph 996.1mb 25f
4:12am 23 33 mph 996mb 25f
4:06am 24 31 mph 995.9mb 25f
4:00am 14 21 mph 995.8mb 22f
3:54am 10 20 mph 995.8mb 21f
3:48am 10 20 mph 995.7mb 20f
3:42am 10 21 mph 995.7mb 21f
3:36am 15 24 mph 995.7mb 21f
3:30am 11 21 mph 995.7mb 22f
3:24am 10 20 mph 995.5mb 22f
3:18am 13 21 mph 995.6mb 23f
3:12am 15 21 mph 995.5mb 21f
3:06am 14 23 mph 995.5mb 22f
3:00am 14 26 mph 995.5mb 23f
2:54am 17 28 mph 995.6mb 23f
2:48am 11 22 mph 995mb 22f
2:42am 14 18 mph 995.2mb 21f
2:36am 13 22 mph 995.1mb 22f
2:30am 15 23 mph 995.2mb 23f
2:24am 13 23 mph 995.3mb 22f
2:18am 14 20 mph 995.3mb 22f
2:12am 16 29 mph 995.1mb 22f
2:06am 15 24 mph 995.2mb 22f
2:00am 14 21 mph 995.1mb 22f
1:54am 10 21 mph 994.8mb 21f
1:48am 13 21 mph 994.9mb 21f
1:42am 10 32 mph 994.7mb 22f
1:36am 13 28 mph 994.9mb 22f
1:30am 22 29 mph 994.9mb 25f
1:24am 21 38 mph 994.9mb 23f
1:18am 21 40 mph 994.8mb 22f
1:12am 24 31 mph 994.6mb 24f
1:06am 8 13 mph 994.5mb 20f
1:00am 6 13 mph 994.4mb 19f
12:54am 10 17 mph 994.7mb 19f
12:48am 10 18 mph 994.9mb 19f
12:42am 10 20 mph 994.9mb 19f
12:36am 10 15 mph 995mb 19f
12:30am 10 15 mph 995mb 17f
12:24am 9 15 mph 995mb 17f
12:18am 8 13 mph 995mb 17f
12:12am 8 15 mph 995.2mb 17f
12:06am 8 16 mph 995.3mb 17f
12:00am 10 17 mph 995.3mb 17f
Mon 11/17 11:54pm 8 15 mph 995.4mb 16f
11:48pm 3 10 mph 995.4mb 16f
11:42pm 3 10 mph 995.6mb 16f
11:36pm 5 15 mph 995.7mb 16f
11:30pm 2 13 mph 995.8mb 15f
11:24pm 5 13 mph 995.9mb 16f
11:18pm 6 10 mph 995.9mb 15f
11:12pm 6 11 mph 995.9mb 15f
11:06pm 6 20 mph 995.9mb 15f
11:00pm 8 16 mph 995.9mb 15f
10:54pm 6 17 mph 995.9mb 15f
10:48pm 6 13 mph 996mb 15f
10:42pm 7 15 mph 996.1mb 15f
10:36pm 6 14 mph 996.2mb 15f
10:30pm 5 13 mph 996.3mb 15f
10:24pm 7 16 mph 996.3mb 15f
10:18pm 6 14 mph 996.4mb 15f
10:12pm 7 15 mph 996.4mb 15f
10:06pm 10 18 mph 996.5mb 16f
10:00pm 9 16 mph 996.6mb 16f
9:54pm 7 17 mph 996.7mb 16f
9:48pm 7 16 mph 996.7mb 16f
9:42pm 8 15 mph 996.8mb 16f
9:36pm 7 13 mph 996.9mb 16f
9:30pm 8 13 mph 997mb 16f
9:24pm 7 15 mph 997.1mb 16f
9:18pm 7 17 mph 997.1mb 17f
9:12pm 7 14 mph 997.2mb 17f
9:06pm 10 20 mph 997.3mb 17f
9:00pm 8 16 mph 997.3mb 17f
8:54pm 8 17 mph 997.4mb 17f
8:48pm 7 14 mph 997.5mb 18f
8:42pm 8 17 mph 997.6mb 18f
8:36pm 10 22 mph 997.7mb 18f
8:30pm 7 14 mph 997.7mb 18f
8:24pm 8 15 mph 997.9mb 18f
8:18pm 9 14 mph 998mb 18f
8:12pm 10 20 mph 998.1mb 18f
8:06pm 9 17 mph 998.2mb 18f
8:00pm 9 21 mph 998.2mb 18f
7:54pm 10 18 mph 998.3mb 18f
7:48pm 10 18 mph 998.4mb 18f
7:42pm 9 20 mph 998.4mb 18f
7:36pm 8 15 mph 998.5mb 18f
7:30pm 11 17 mph 998.5mb 18f
7:24pm 10 17 mph 998.7mb 18f
7:18pm 10 18 mph 998.8mb 18f
7:12pm 10 17 mph 998.8mb 18f
7:06pm 7 17 mph 998.8mb 19f
7:00pm 9 17 mph 998.9mb 19f
6:54pm 8 22 mph 998.9mb 19f
6:48pm 10 18 mph 999.1mb 19f
6:42pm 10 16 mph 999.2mb 19f
6:36pm 9 16 mph 999.3mb 19f
6:30pm 9 17 mph 999.2mb 20f
6:24pm 9 15 mph 999.2mb 20f
6:18pm 8 16 mph 999.3mb 20f
6:12pm 8 15 mph 999.3mb 19f
6:06pm 8 16 mph 999.3mb 19f
6:00pm 7 10 mph 999.3mb 19f
5:54pm 9 14 mph 999.3mb 20f
5:48pm 7 14 mph 999.3mb 19f
5:42pm 7 13 mph 999.3mb 19f
5:36pm 7 11 mph 999.4mb 19f
5:30pm 7 14 mph 999.5mb 20f
5:24pm 6 14 mph 999.6mb 20f
5:18pm 7 13 mph 999.6mb 20f
5:12pm 9 16 mph 999.5mb 20f
5:06pm 7 13 mph 999.5mb 20f
4:54pm 9 17 mph 999.5mb 21f
4:48pm 9 18 mph 999.6mb 21f
4:42pm 7 16 mph 999.6mb 21f
4:36pm 9 17 mph 999.6mb 21f
4:30pm 9 17 mph 999.4mb 21f
4:24pm 7 15 mph 999.4mb 21f
4:18pm 7 14 mph 999.3mb 21f
4:12pm 8 15 mph 999.2mb 21f
4:06pm 7 14 mph 999.2mb 21f
4:00pm 8 13 mph 999.2mb 22f
3:54pm 6 11 mph 999.1mb 22f
3:48pm 6 13 mph 999mb 21f
3:42pm 6 13 mph 999mb 21f
3:36pm 7 13 mph 999.1mb 21f
3:30pm 6 11 mph 999.1mb 21f
3:24pm 7 11 mph 999mb 22f
3:18pm 7 15 mph 999mb 22f
3:12pm 8 15 mph 998.9mb 22f
3:06pm 8 13 mph 998.9mb 22f
3:00pm 5 10 mph 998.9mb 22f
2:54pm 6 11 mph 998.9mb 22f
2:48pm 7 11 mph 998.9mb 22f
2:42pm 9 16 mph 998.9mb 22f
2:36pm 8 14 mph 998.9mb 22f
2:30pm 7 13 mph 998.8mb 22f
2:24pm 10 18 mph 998.9mb 22f
2:18pm 7 13 mph 998.8mb 22f
2:12pm 7 14 mph 998.8mb 22f
2:06pm 6 13 mph 998.8mb 22f
2:00pm 8 13 mph 998.8mb 22f
1:54pm 7 10 mph 998.8mb 22f
1:48pm 9 14 mph 998.8mb 22f
1:42pm 8 14 mph 998.8mb 22f
1:36pm 7 10 mph 998.8mb 22f
1:30pm 7 13 mph 998.7mb 22f
1:24pm 7 14 mph 998.8mb 22f
1:18pm 7 13 mph 998.8mb 22f
1:12pm 5 14 mph 998.9mb 22f
1:06pm 8 14 mph 999mb 22f
1:00pm 8 13 mph 999mb 23f
12:54pm 6 14 mph 999mb 23f
12:48pm 7 13 mph 999.1mb 23f
12:42pm 6 10 mph 999.1mb 23f
12:36pm 6 11 mph 999.1mb 23f
12:30pm 6 13 mph 999.1mb 23f
12:24pm 8 14 mph 999.1mb 23f
12:18pm 11 16 mph 999.2mb 23f
12:12pm 6 11 mph 999.1mb 23f
12:06pm 10 14 mph 999.2mb 22f
12:00pm 9 13 mph 999.2mb 23f
11:54am 6 11 mph 999.2mb 24f
11:48am 6 9 mph 999.2mb 24f
11:42am 6 10 mph 999.4mb 23f
11:36am 5 8 mph 999.4mb 23f
11:30am 7 10 mph 999.5mb 23f
11:24am 6 11 mph 999.6mb 24f
11:18am 9 14 mph 999.7mb 23f
11:12am 6 9 mph 999.8mb 24f
11:06am 1 7 mph 999.8mb 23f
11:00am 3 9 mph 1000mb 22f
10:54am 6 9 mph 1000.1mb 22f
10:48am 2 9 mph 1000.1mb 22f
10:42am 5 9 mph 1000.3mb 21f
10:36am 5 7 mph 1000.4mb 22f
10:30am 6 11 mph 1000.5mb 21f
10:24am 2 9 mph 1000.8mb 21f
10:18am 6 10 mph 1001mb 21f
10:12am 3 9 mph 1001mb 21f
10:06am 2 7 mph 1001.1mb 21f
10:00am 5 8 mph 1001.2mb 21f
9:54am 5 8 mph 1001.3mb 21f
9:48am 3 8 mph 1001.3mb 21f
9:42am 5 8 mph 1001.4mb 21f
9:36am 5 8 mph 1001.4mb 20f
9:30am 6 9 mph 1001.5mb 20f
9:24am 3 10 mph 1001.6mb 21f
9:18am 5 11 mph 1001.7mb 21f
9:12am 5 10 mph 1001.8mb 21f
9:06am 5 11 mph 1001.8mb 21f
9:00am 6 11 mph 1001.8mb 21f
8:54am 7 11 mph 1001.8mb 21f
8:48am 5 10 mph 1001.8mb 21f
8:42am 7 11 mph 1001.9mb 21f
8:36am 7 13 mph 1001.8mb 22f
8:30am 6 10 mph 1001.7mb 22f
8:24am 5 10 mph 1001.7mb 22f
8:18am 6 10 mph 1001.8mb 22f
8:12am 7 13 mph 1001.7mb 22f
8:06am 7 10 mph 1001.7mb 22f
8:00am 6 11 mph 1001.8mb 22f
7:54am 7 13 mph 1001.8mb 22f
7:48am 6 8 mph 1001.9mb 23f
7:42am 6 8 mph 1001.9mb 23f
7:36am 3 7 mph 1002mb 23f
7:30am 1 5 mph 1002.1mb 22f
7:24am 2 5 mph 1002.1mb 22f
7:18am 2 5 mph 1002.2mb 22f
7:12am 2 3 mph 1002.3mb 22f
7:06am 1 3 mph 1002.3mb 22f
7:00am 2 6 mph 1002.3mb 22f
6:54am 6 9 mph 1002.4mb 22f
6:48am 7 9 mph 1002.5mb 22f
6:42am 6 10 mph 1002.6mb 22f
6:36am 7 11 mph 1002.7mb 22f
6:30am 7 11 mph 1002.7mb 23f
6:24am 6 10 mph 1002.8mb 23f
6:18am 8 10 mph 1002.7mb 23f
6:12am 6 14 mph 1002.7mb 23f
6:06am 7 13 mph 1002.7mb 24f
6:00am 5 7 mph 1002.8mb 24f
5:54am 6 8 mph 1002.8mb 24f
5:48am 5 8 mph 1002.8mb 24f
5:42am 3 7 mph 1002.8mb 24f
5:36am 5 8 mph 1002.9mb 24f
5:30am 5 6 mph 1002.9mb 24f
5:24am 5 7 mph 1002.9mb 24f
5:18am 5 6 mph 1002.9mb 24f
5:12am 6 8 mph 1002.8mb 24f
5:06am 5 8 mph 1003mb 24f
5:00am 5 9 mph 1003.1mb 24f
4:54am 7 9 mph 1003.2mb 24f
4:48am 5 6 mph 1003.3mb 24f
4:42am 3 7 mph 1003.2mb 24f
4:36am 6 8 mph 1003.3mb 24f
4:30am 5 8 mph 1003.3mb 24f
4:24am 6 8 mph 1003.4mb 25f
4:18am 5 7 mph 1003.5mb 25f
4:12am 5 7 mph 1003.6mb 24f
4:06am 5 6 mph 1003.6mb 24f
4:00am 5 7 mph 1003.6mb 24f
3:54am 3 7 mph 1003.6mb 25f
3:48am 6 9 mph 1003.7mb 25f
3:42am 6 8 mph 1003.8mb 25f
3:36am 6 8 mph 1003.9mb 25f
3:30am 6 7 mph 1004mb 25f
3:24am 5 7 mph 1004.1mb 25f
3:18am 5 6 mph 1004.2mb 25f
3:12am 5 6 mph 1004.3mb 25f
3:06am 5 6 mph 1004.3mb 25f
3:00am 5 7 mph 1004.4mb 25f
2:54am 5 7 mph 1004.5mb 25f
2:48am 3 7 mph 1004.6mb 25f
2:42am 3 6 mph 1004.7mb 25f
2:36am 5 6 mph 1004.8mb 25f
2:30am 5 8 mph 1004.8mb 25f